sensor_id;sensor_type;location;lat;lon;timestamp;pressure;altitude;pressure_sealevel;temperature
28803;BMP280;15949;55.656;37.422;2022-12-28T00:02:06;98805.88;;;-1.53
28803;BMP280;15949;55.656;37.422;2022-12-28T00:07:11;98799.44;;;-1.46
28803;BMP280;15949;55.656;37.422;2022-12-28T00:12:17;98783.88;;;-1.49
28803;BMP280;15949;55.656;37.422;2022-12-28T00:17:22;98781.81;;;-1.52
28803;BMP280;15949;55.656;37.422;2022-12-28T00:22:28;98785.44;;;-1.53
28803;BMP280;15949;55.656;37.422;2022-12-28T00:27:33;98782.38;;;-1.60
28803;BMP280;15949;55.656;37.422;2022-12-28T00:32:39;98777.53;;;-1.67
28803;BMP280;15949;55.656;37.422;2022-12-28T00:37:45;98762.47;;;-1.63
28803;BMP280;15949;55.656;37.422;2022-12-28T00:42:50;98761.44;;;-1.67
28803;BMP280;15949;55.656;37.422;2022-12-28T00:47:56;98755.56;;;-1.63
28803;BMP280;15949;55.656;37.422;2022-12-28T00:53:01;98758.38;;;-1.64
28803;BMP280;15949;55.656;37.422;2022-12-28T00:58:07;98752.72;;;-1.61
28803;BMP280;15949;55.656;37.422;2022-12-28T01:03:13;98753.00;;;-1.58
28803;BMP280;15949;55.656;37.422;2022-12-28T01:08:18;98752.72;;;-1.51
28803;BMP280;15949;55.656;37.422;2022-12-28T01:13:24;98743.72;;;-1.44
28803;BMP280;15949;55.656;37.422;2022-12-28T01:18:30;98735.03;;;-1.43
28803;BMP280;15949;55.656;37.422;2022-12-28T01:23:35;98737.91;;;-1.49
28803;BMP280;15949;55.656;37.422;2022-12-28T01:28:41;98732.81;;;-1.54
28803;BMP280;15949;55.656;37.422;2022-12-28T01:33:47;98724.59;;;-1.46
28803;BMP280;15949;55.656;37.422;2022-12-28T01:38:56;98723.34;;;-1.49
28803;BMP280;15949;55.656;37.422;2022-12-28T01:49:38;98730.22;;;-1.49
28803;BMP280;15949;55.656;37.422;2022-12-28T01:54:49;98713.06;;;-1.44
28803;BMP280;15949;55.656;37.422;2022-12-28T02:00:10;98709.03;;;-1.50
28803;BMP280;15949;55.656;37.422;2022-12-28T02:05:17;98704.19;;;-1.56
28803;BMP280;15949;55.656;37.422;2022-12-28T02:10:23;98711.34;;;-1.53
28803;BMP280;15949;55.656;37.422;2022-12-28T02:15:29;98703.19;;;-1.60
28803;BMP280;15949;55.656;37.422;2022-12-28T02:31:22;98708.81;;;-1.58
28803;BMP280;15949;55.656;37.422;2022-12-28T02:36:35;98719.50;;;-1.56
28803;BMP280;15949;55.656;37.422;2022-12-28T02:41:44;98713.38;;;-1.50
28803;BMP280;15949;55.656;37.422;2022-12-28T02:46:50;98710.31;;;-1.52
28803;BMP280;15949;55.656;37.422;2022-12-28T02:58:35;98710.56;;;-1.49
28803;BMP280;15949;55.656;37.422;2022-12-28T03:09:16;98709.78;;;-1.49
28803;BMP280;15949;55.656;37.422;2022-12-28T03:14:44;98703.91;;;-1.45
28803;BMP280;15949;55.656;37.422;2022-12-28T03:19:57;98701.63;;;-1.51
28803;BMP280;15949;55.656;37.422;2022-12-28T03:25:24;98697.78;;;-1.49
28803;BMP280;15949;55.656;37.422;2022-12-28T03:30:52;98698.53;;;-1.48
28803;BMP280;15949;55.656;37.422;2022-12-28T03:41:41;98682.94;;;-1.47
28803;BMP280;15949;55.656;37.422;2022-12-28T03:46:55;98680.41;;;-1.52
28803;BMP280;15949;55.656;37.422;2022-12-28T03:52:02;98671.97;;;-1.47
28803;BMP280;15949;55.656;37.422;2022-12-28T03:57:08;98680.63;;;-1.43
28803;BMP280;15949;55.656;37.422;2022-12-28T04:02:13;98682.47;;;-1.49
28803;BMP280;15949;55.656;37.422;2022-12-28T04:07:19;98680.19;;;-1.55
28803;BMP280;15949;55.656;37.422;2022-12-28T04:12:24;98682.22;;;-1.57
28803;BMP280;15949;55.656;37.422;2022-12-28T04:17:31;98676.84;;;-1.56
28803;BMP280;15949;55.656;37.422;2022-12-28T04:22:36;98667.94;;;-1.58
28803;BMP280;15949;55.656;37.422;2022-12-28T04:27:42;98667.91;;;-1.53
28803;BMP280;15949;55.656;37.422;2022-12-28T04:32:47;98675.59;;;-1.58
28803;BMP280;15949;55.656;37.422;2022-12-28T04:37:53;98654.63;;;-1.55
28803;BMP280;15949;55.656;37.422;2022-12-28T04:42:58;98668.97;;;-1.59
28803;BMP280;15949;55.656;37.422;2022-12-28T04:48:04;98651.59;;;-1.62
28803;BMP280;15949;55.656;37.422;2022-12-28T04:53:09;98661.84;;;-1.67
28803;BMP280;15949;55.656;37.422;2022-12-28T04:58:15;98661.63;;;-1.76
28803;BMP280;15949;55.656;37.422;2022-12-28T05:03:21;98660.34;;;-1.79
28803;BMP280;15949;55.656;37.422;2022-12-28T05:08:27;98665.22;;;-1.82
28803;BMP280;15949;55.656;37.422;2022-12-28T05:13:33;98662.13;;;-1.84
28803;BMP280;15949;55.656;37.422;2022-12-28T05:18:38;98667.50;;;-1.81
28803;BMP280;15949;55.656;37.422;2022-12-28T05:23:44;98669.78;;;-1.84
28803;BMP280;15949;55.656;37.422;2022-12-28T05:28:50;98661.88;;;-1.78
28803;BMP280;15949;55.656;37.422;2022-12-28T05:33:55;98661.63;;;-1.76
28803;BMP280;15949;55.656;37.422;2022-12-28T05:39:01;98664.13;;;-1.71
28803;BMP280;15949;55.656;37.422;2022-12-28T05:44:06;98665.66;;;-1.70
28803;BMP280;15949;55.656;37.422;2022-12-28T05:49:12;98675.13;;;-1.70
28803;BMP280;15949;55.656;37.422;2022-12-28T05:54:17;98676.16;;;-1.71
28803;BMP280;15949;55.656;37.422;2022-12-28T05:59:23;98677.72;;;-1.81
28803;BMP280;15949;55.656;37.422;2022-12-28T06:04:29;98686.94;;;-1.85
28803;BMP280;15949;55.656;37.422;2022-12-28T06:09:34;98690.50;;;-1.86
28803;BMP280;15949;55.656;37.422;2022-12-28T06:14:40;98693.06;;;-1.86
28803;BMP280;15949;55.656;37.422;2022-12-28T06:19:45;98690.50;;;-1.86
28803;BMP280;15949;55.656;37.422;2022-12-28T06:24:51;98697.41;;;-1.86
28803;BMP280;15949;55.656;37.422;2022-12-28T06:29:56;98701.97;;;-1.78
28803;BMP280;15949;55.656;37.422;2022-12-28T06:35:02;98695.56;;;-1.75
28803;BMP280;15949;55.656;37.422;2022-12-28T06:40:08;98696.09;;;-1.79
28803;BMP280;15949;55.656;37.422;2022-12-28T06:45:14;98702.72;;;-1.78
28803;BMP280;15949;55.656;37.422;2022-12-28T06:50:19;98691.50;;;-1.76
28803;BMP280;15949;55.656;37.422;2022-12-28T06:55:25;98694.03;;;-1.71
28803;BMP280;15949;55.656;37.422;2022-12-28T07:00:30;98695.03;;;-1.67
28803;BMP280;15949;55.656;37.422;2022-12-28T07:05:36;98706.28;;;-1.63
28803;BMP280;15949;55.656;37.422;2022-12-28T07:10:41;98701.66;;;-1.61
28803;BMP280;15949;55.656;37.422;2022-12-28T07:15:47;98708.28;;;-1.60
28803;BMP280;15949;55.656;37.422;2022-12-28T07:21:01;98697.53;;;-1.52
28803;BMP280;15949;55.656;37.422;2022-12-28T07:26:10;98707.25;;;-1.49
28803;BMP280;15949;55.656;37.422;2022-12-28T07:31:24;98713.34;;;-1.40
28803;BMP280;15949;55.656;37.422;2022-12-28T07:36:31;98712.00;;;-1.33
28803;BMP280;15949;55.656;37.422;2022-12-28T07:41:37;98720.19;;;-1.36
28803;BMP280;15949;55.656;37.422;2022-12-28T07:46:43;98714.78;;;-1.29
28803;BMP280;15949;55.656;37.422;2022-12-28T07:51:48;98707.38;;;-1.30
28803;BMP280;15949;55.656;37.422;2022-12-28T07:56:54;98711.47;;;-1.29
28803;BMP280;15949;55.656;37.422;2022-12-28T08:01:59;98702.22;;;-1.20
28803;BMP280;15949;55.656;37.422;2022-12-28T08:07:05;98700.69;;;-1.21
28803;BMP280;15949;55.656;37.422;2022-12-28T08:12:11;98700.41;;;-1.20
28803;BMP280;15949;55.656;37.422;2022-12-28T08:17:16;98704.84;;;-1.30
28803;BMP280;15949;55.656;37.422;2022-12-28T08:22:22;98710.44;;;-1.28
28803;BMP280;15949;55.656;37.422;2022-12-28T08:27:27;98700.19;;;-1.23
28803;BMP280;15949;55.656;37.422;2022-12-28T08:32:33;98706.50;;;-1.11
28803;BMP280;15949;55.656;37.422;2022-12-28T08:37:38;98715.19;;;-1.07
28803;BMP280;15949;55.656;37.422;2022-12-28T08:42:44;98700.81;;;-0.98
28803;BMP280;15949;55.656;37.422;2022-12-28T08:47:50;98714.63;;;-0.99
28803;BMP280;15949;55.656;37.422;2022-12-28T08:52:55;98717.97;;;-1.03
28803;BMP280;15949;55.656;37.422;2022-12-28T08:58:01;98714.13;;;-1.01
28803;BMP280;15949;55.656;37.422;2022-12-28T09:03:06;98718.72;;;-0.98
28803;BMP280;15949;55.656;37.422;2022-12-28T09:08:12;98713.63;;;-1.03
28803;BMP280;15949;55.656;37.422;2022-12-28T09:13:17;98716.88;;;-0.92
28803;BMP280;15949;55.656;37.422;2022-12-28T09:18:23;98701.78;;;-0.89
28803;BMP280;15949;55.656;37.422;2022-12-28T09:23:28;98705.53;;;-0.81
28803;BMP280;15949;55.656;37.422;2022-12-28T09:28:34;98708.94;;;-0.85
28803;BMP280;15949;55.656;37.422;2022-12-28T09:33:40;98708.75;;;-0.99
28803;BMP280;15949;55.656;37.422;2022-12-28T09:39:06;98714.09;;;-0.96
28803;BMP280;15949;55.656;37.422;2022-12-28T09:49:27;98714.13;;;-1.01
28803;BMP280;15949;55.656;37.422;2022-12-28T09:54:35;98711.53;;;-0.96
28803;BMP280;15949;55.656;37.422;2022-12-28T09:59:41;98723.25;;;-0.90
28803;BMP280;15949;55.656;37.422;2022-12-28T10:04:49;98716.72;;;-1.06
28803;BMP280;15949;55.656;37.422;2022-12-28T10:09:54;98728.50;;;-1.10
28803;BMP280;15949;55.656;37.422;2022-12-28T10:15:00;98740.69;;;-0.92
28803;BMP280;15949;55.656;37.422;2022-12-28T10:20:12;98738.53;;;-0.79
28803;BMP280;15949;55.656;37.422;2022-12-28T10:25:21;98739.81;;;-0.82
28803;BMP280;15949;55.656;37.422;2022-12-28T10:30:27;98745.28;;;-0.94
28803;BMP280;15949;55.656;37.422;2022-12-28T10:35:39;98758.34;;;-0.95
28803;BMP280;15949;55.656;37.422;2022-12-28T10:41:07;98741.25;;;-1.05
28803;BMP280;15949;55.656;37.422;2022-12-28T10:46:16;98739.16;;;-0.98
28803;BMP280;15949;55.656;37.422;2022-12-28T10:51:26;98746.34;;;-1.00
28803;BMP280;15949;55.656;37.422;2022-12-28T10:56:47;98740.41;;;-0.90
28803;BMP280;15949;55.656;37.422;2022-12-28T11:01:54;98743.59;;;-0.74
28803;BMP280;15949;55.656;37.422;2022-12-28T11:07:02;98742.69;;;-0.89
28803;BMP280;15949;55.656;37.422;2022-12-28T11:12:25;98747.31;;;-0.91
28803;BMP280;15949;55.656;37.422;2022-12-28T11:17:33;98752.25;;;-1.04
28803;BMP280;15949;55.656;37.422;2022-12-28T11:22:41;98745.09;;;-1.07
28803;BMP280;15949;55.656;37.422;2022-12-28T11:27:47;98751.47;;;-1.05
28803;BMP280;15949;55.656;37.422;2022-12-28T11:32:56;98749.78;;;-1.29
28803;BMP280;15949;55.656;37.422;2022-12-28T11:38:05;98752.88;;;-1.33
28803;BMP280;15949;55.656;37.422;2022-12-28T11:43:38;98763.69;;;-1.46
28803;BMP280;15949;55.656;37.422;2022-12-28T11:48:56;98778.75;;;-1.44
28803;BMP280;15949;55.656;37.422;2022-12-28T11:54:03;98777.25;;;-1.65
28803;BMP280;15949;55.656;37.422;2022-12-28T12:04:35;98787.25;;;-1.79
28803;BMP280;15949;55.656;37.422;2022-12-28T12:09:44;98790.06;;;-1.81
28803;BMP280;15949;55.656;37.422;2022-12-28T12:15:01;98799.28;;;-1.85
28803;BMP280;15949;55.656;37.422;2022-12-28T12:20:18;98796.97;;;-1.86
28803;BMP280;15949;55.656;37.422;2022-12-28T12:25:36;98803.38;;;-2.04
28803;BMP280;15949;55.656;37.422;2022-12-28T12:30:43;98802.34;;;-2.08
28803;BMP280;15949;55.656;37.422;2022-12-28T12:56:49;98836.50;;;-2.24
28803;BMP280;15949;55.656;37.422;2022-12-28T13:07:24;98840.31;;;-2.62
28803;BMP280;15949;55.656;37.422;2022-12-28T13:12:31;98858.66;;;-2.60
28803;BMP280;15949;55.656;37.422;2022-12-28T13:17:36;98861.19;;;-2.65
28803;BMP280;15949;55.656;37.422;2022-12-28T13:22:44;98862.22;;;-2.71
28803;BMP280;15949;55.656;37.422;2022-12-28T13:27:50;98871.09;;;-2.79
28803;BMP280;15949;55.656;37.422;2022-12-28T13:32:58;98871.63;;;-2.77
28803;BMP280;15949;55.656;37.422;2022-12-28T13:38:14;98876.19;;;-2.79
28803;BMP280;15949;55.656;37.422;2022-12-28T13:48:43;98877.50;;;-2.71
28803;BMP280;15949;55.656;37.422;2022-12-28T13:53:55;98892.31;;;-2.68
28803;BMP280;15949;55.656;37.422;2022-12-28T13:59:07;98886.94;;;-2.72
28803;BMP280;15949;55.656;37.422;2022-12-28T14:04:22;98891.03;;;-2.71
28803;BMP280;15949;55.656;37.422;2022-12-28T14:09:29;98897.63;;;-2.80
28803;BMP280;15949;55.656;37.422;2022-12-28T14:14:36;98912.16;;;-2.80
28803;BMP280;15949;55.656;37.422;2022-12-28T14:19:42;98897.59;;;-2.85
28803;BMP280;15949;55.656;37.422;2022-12-28T14:25:21;98895.03;;;-2.85
28803;BMP280;15949;55.656;37.422;2022-12-28T14:30:35;98909.06;;;-2.82
28803;BMP280;15949;55.656;37.422;2022-12-28T14:35:47;98906.50;;;-2.82
28803;BMP280;15949;55.656;37.422;2022-12-28T14:40:58;98910.69;;;-2.66
28803;BMP280;15949;55.656;37.422;2022-12-28T14:46:33;98915.78;;;-2.66
28803;BMP280;15949;55.656;37.422;2022-12-28T14:51:39;98919.84;;;-2.65
28803;BMP280;15949;55.656;37.422;2022-12-28T14:56:54;98922.16;;;-2.63
28803;BMP280;15949;55.656;37.422;2022-12-28T15:02:02;98919.09;;;-2.60
28803;BMP280;15949;55.656;37.422;2022-12-28T15:07:08;98924.50;;;-2.57
28803;BMP280;15949;55.656;37.422;2022-12-28T15:12:19;98936.72;;;-2.59
28803;BMP280;15949;55.656;37.422;2022-12-28T15:17:26;98939.53;;;-2.55
28803;BMP280;15949;55.656;37.422;2022-12-28T15:22:31;98933.41;;;-2.54
28803;BMP280;15949;55.656;37.422;2022-12-28T15:27:37;98937.53;;;-2.48
28803;BMP280;15949;55.656;37.422;2022-12-28T15:32:43;98930.38;;;-2.46
28803;BMP280;15949;55.656;37.422;2022-12-28T15:37:49;98937.03;;;-2.45
28803;BMP280;15949;55.656;37.422;2022-12-28T15:42:55;98950.53;;;-2.50
28803;BMP280;15949;55.656;37.422;2022-12-28T15:48:00;98955.88;;;-2.46
28803;BMP280;15949;55.656;37.422;2022-12-28T15:53:06;98959.97;;;-2.45
28803;BMP280;15949;55.656;37.422;2022-12-28T15:58:12;98970.19;;;-2.45
28803;BMP280;15949;55.656;37.422;2022-12-28T16:03:17;98978.88;;;-2.41
28803;BMP280;15949;55.656;37.422;2022-12-28T16:08:23;98981.19;;;-2.40
28803;BMP280;15949;55.656;37.422;2022-12-28T16:13:28;98983.16;;;-2.52
28803;BMP280;15949;55.656;37.422;2022-12-28T16:18:34;98989.59;;;-2.44
28803;BMP280;15949;55.656;37.422;2022-12-28T16:23:43;98983.97;;;-2.36
28803;BMP280;15949;55.656;37.422;2022-12-28T16:28:48;98990.56;;;-2.50
28803;BMP280;15949;55.656;37.422;2022-12-28T16:33:57;98971.19;;;-2.46
28803;BMP280;15949;55.656;37.422;2022-12-28T16:39:05;98989.06;;;-2.36
28803;BMP280;15949;55.656;37.422;2022-12-28T16:44:16;98983.72;;;-2.35
28803;BMP280;15949;55.656;37.422;2022-12-28T16:49:22;98980.91;;;-2.48
28803;BMP280;15949;55.656;37.422;2022-12-28T16:54:27;98984.22;;;-2.48
28803;BMP280;15949;55.656;37.422;2022-12-28T16:59:33;98991.59;;;-2.46
28803;BMP280;15949;55.656;37.422;2022-12-28T17:04:38;98991.59;;;-2.46
28803;BMP280;15949;55.656;37.422;2022-12-28T17:09:44;98988.31;;;-2.37
28803;BMP280;15949;55.656;37.422;2022-12-28T17:14:50;98977.59;;;-2.34
28803;BMP280;15949;55.656;37.422;2022-12-28T17:19:55;98992.91;;;-2.29
28803;BMP280;15949;55.656;37.422;2022-12-28T17:25:01;98987.56;;;-2.27
28803;BMP280;15949;55.656;37.422;2022-12-28T17:30:07;99002.13;;;-2.23
28803;BMP280;15949;55.656;37.422;2022-12-28T17:35:13;99013.13;;;-2.22
28803;BMP280;15949;55.656;37.422;2022-12-28T17:40:19;99010.59;;;-2.17
28803;BMP280;15949;55.656;37.422;2022-12-28T17:45:25;99004.19;;;-2.19
28803;BMP280;15949;55.656;37.422;2022-12-28T17:50:31;99011.06;;;-2.20
28803;BMP280;15949;55.656;37.422;2022-12-28T17:55:36;99026.38;;;-2.25
28803;BMP280;15949;55.656;37.422;2022-12-28T18:00:42;99025.84;;;-2.27
28803;BMP280;15949;55.656;37.422;2022-12-28T18:05:51;99033.75;;;-2.29
28803;BMP280;15949;55.656;37.422;2022-12-28T18:10:57;99027.88;;;-2.29
28803;BMP280;15949;55.656;37.422;2022-12-28T18:16:04;99033.25;;;-2.20
28803;BMP280;15949;55.656;37.422;2022-12-28T18:21:13;99033.78;;;-2.18
28803;BMP280;15949;55.656;37.422;2022-12-28T18:26:21;99032.81;;;-2.12
28803;BMP280;15949;55.656;37.422;2022-12-28T18:31:27;99024.88;;;-2.11
28803;BMP280;15949;55.656;37.422;2022-12-28T18:36:34;99037.13;;;-2.18
28803;BMP280;15949;55.656;37.422;2022-12-28T18:41:39;99031.28;;;-2.13
28803;BMP280;15949;55.656;37.422;2022-12-28T18:46:45;99032.81;;;-2.12
28803;BMP280;15949;55.656;37.422;2022-12-28T18:51:51;99038.69;;;-2.07
28803;BMP280;15949;55.656;37.422;2022-12-28T18:56:57;99034.63;;;-2.08
28803;BMP280;15949;55.656;37.422;2022-12-28T19:02:03;99041.22;;;-2.07
28803;BMP280;15949;55.656;37.422;2022-12-28T19:07:08;99042.28;;;-2.08
28803;BMP280;15949;55.656;37.422;2022-12-28T19:12:14;99044.06;;;-2.08
28803;BMP280;15949;55.656;37.422;2022-12-28T19:17:19;99042.75;;;-2.11
28803;BMP280;15949;55.656;37.422;2022-12-28T19:22:25;99055.81;;;-2.07
28803;BMP280;15949;55.656;37.422;2022-12-28T19:27:31;99055.63;;;-1.91
28803;BMP280;15949;55.656;37.422;2022-12-28T19:32:36;99054.34;;;-1.83
28803;BMP280;15949;55.656;37.422;2022-12-28T19:37:42;99058.72;;;-1.79
28803;BMP280;15949;55.656;37.422;2022-12-28T19:42:47;99070.22;;;-1.71
28803;BMP280;15949;55.656;37.422;2022-12-28T19:47:53;99068.19;;;-1.69
28803;BMP280;15949;55.656;37.422;2022-12-28T19:52:58;99078.19;;;-1.62
28803;BMP280;15949;55.656;37.422;2022-12-28T19:58:04;99084.34;;;-1.53
28803;BMP280;15949;55.656;37.422;2022-12-28T20:03:09;99089.22;;;-1.42
28803;BMP280;15949;55.656;37.422;2022-12-28T20:08:15;99084.63;;;-1.40
28803;BMP280;15949;55.656;37.422;2022-12-28T20:13:20;99093.28;;;-1.36
28803;BMP280;15949;55.656;37.422;2022-12-28T20:18:26;99088.94;;;-1.35
28803;BMP280;15949;55.656;37.422;2022-12-28T20:23:34;99090.75;;;-1.36
28803;BMP280;15949;55.656;37.422;2022-12-28T20:28:40;99107.59;;;-1.35
28803;BMP280;15949;55.656;37.422;2022-12-28T20:33:45;99101.97;;;-1.37
28803;BMP280;15949;55.656;37.422;2022-12-28T20:38:53;99100.69;;;-1.34
28803;BMP280;15949;55.656;37.422;2022-12-28T20:44:00;99101.72;;;-1.30
28803;BMP280;15949;55.656;37.422;2022-12-28T20:49:06;99119.63;;;-1.25
28803;BMP280;15949;55.656;37.422;2022-12-28T20:54:13;99113.72;;;-1.25
28803;BMP280;15949;55.656;37.422;2022-12-28T20:59:19;99111.94;;;-1.25
28803;BMP280;15949;55.656;37.422;2022-12-28T21:04:24;99113.50;;;-1.19
28803;BMP280;15949;55.656;37.422;2022-12-28T21:09:30;99114.03;;;-1.22
28803;BMP280;15949;55.656;37.422;2022-12-28T21:14:35;99119.13;;;-1.22
28803;BMP280;15949;55.656;37.422;2022-12-28T21:19:41;99117.59;;;-1.23
28803;BMP280;15949;55.656;37.422;2022-12-28T21:24:46;99125.75;;;-1.21
28803;BMP280;15949;55.656;37.422;2022-12-28T21:29:52;99130.13;;;-1.16
28803;BMP280;15949;55.656;37.422;2022-12-28T21:34:58;99139.06;;;-1.19
28803;BMP280;15949;55.656;37.422;2022-12-28T21:40:06;99144.41;;;-1.25
28803;BMP280;15949;55.656;37.422;2022-12-28T21:45:12;99138.03;;;-1.23
28803;BMP280;15949;55.656;37.422;2022-12-28T21:50:17;99139.06;;;-1.19
28803;BMP280;15949;55.656;37.422;2022-12-28T21:55:23;99135.47;;;-1.23
28803;BMP280;15949;55.656;37.422;2022-12-28T22:00:46;99144.41;;;-1.25
28803;BMP280;15949;55.656;37.422;2022-12-28T22:06:10;99142.13;;;-1.22
28803;BMP280;15949;55.656;37.422;2022-12-28T22:11:17;99150.28;;;-1.25
28803;BMP280;15949;55.656;37.422;2022-12-28T22:16:41;99148.75;;;-1.31
28803;BMP280;15949;55.656;37.422;2022-12-28T22:21:46;99161.53;;;-1.21
28803;BMP280;15949;55.656;37.422;2022-12-28T22:26:52;99162.06;;;-1.19
28803;BMP280;15949;55.656;37.422;2022-12-28T22:31:57;99160.03;;;-1.22
28803;BMP280;15949;55.656;37.422;2022-12-28T22:37:03;99151.03;;;-1.29
28803;BMP280;15949;55.656;37.422;2022-12-28T22:42:08;99153.63;;;-1.24
28803;BMP280;15949;55.656;37.422;2022-12-28T22:47:14;99145.97;;;-1.19
28803;BMP280;15949;55.656;37.422;2022-12-28T22:52:19;99144.19;;;-1.19
28803;BMP280;15949;55.656;37.422;2022-12-28T22:57:26;99155.94;;;-1.23
28803;BMP280;15949;55.656;37.422;2022-12-28T23:02:31;99159.75;;;-1.25
28803;BMP280;15949;55.656;37.422;2022-12-28T23:07:37;99170.47;;;-1.28
28803;BMP280;15949;55.656;37.422;2022-12-28T23:12:43;99171.22;;;-1.33
28803;BMP280;15949;55.656;37.422;2022-12-28T23:17:49;99177.34;;;-1.34
28803;BMP280;15949;55.656;37.422;2022-12-28T23:23:14;99191.69;;;-1.33
28803;BMP280;15949;55.656;37.422;2022-12-28T23:28:38;99186.56;;;-1.33
28803;BMP280;15949;55.656;37.422;2022-12-28T23:33:44;99189.13;;;-1.38
28803;BMP280;15949;55.656;37.422;2022-12-28T23:38:49;99193.44;;;-1.44
28803;BMP280;15949;55.656;37.422;2022-12-28T23:43:55;99199.31;;;-1.53
28803;BMP280;15949;55.656;37.422;2022-12-28T23:49:01;99199.78;;;-1.56
28803;BMP280;15949;55.656;37.422;2022-12-28T23:54:07;99206.94;;;-1.58
28803;BMP280;15949;55.656;37.422;2022-12-28T23:59:14;99193.88;;;-1.67
